Home   Weather   Australia   Darwin   Past weeks
Flag for Australia

Past Weather in Darwin, Northern Territory, Australia — Yesterday and Last 2 Weeks

Currently: 90 °F. Partly sunny. (Weather station: Darwin Airport, Australia). See more current weather

Past Weather in Darwin — Graph

°F

Darwin Temperature Yesterday

Maximum temperature yesterday: 88 °F (at 3:30 pm)
Minimum temperature yesterday: 75 °F (at 3:05 am)
Average temperature yesterday: 80 °F

High & Low Weather Summary for the Past Weeks

 TemperatureHumidityPressure
High91 °F (Feb 18, 12:00 pm)100% (Feb 13, 9:00 pm)29.80 "Hg (Feb 13, 9:00 pm)
Low73 °F (Feb 20, 12:30 am)52% (Feb 26, 12:30 pm)29.53 "Hg (Feb 20, 5:00 pm)
Average82 °F84%29.68 "Hg
* Reported Feb 11 1:00 pm — Feb 26 1:00 pm, Darwin. Weather by CustomWeather, © 2021

Note: Actual official high and low records may vary slightly from our data, if they occured in-between our weather recording intervals... More about our weather records

Darwin Weather History for the Previous 24 Hours

Scroll right to see more
 ConditionsComfort  
Time TempWeatherWind HumidityBarometerVisibility
1:00 pm
Fri, Feb 26
90 °FScattered clouds.2 mph55%29.65 "HgN/A
12:30 pm88 °FScattered clouds.5 mph52%29.68 "HgN/A
12:00 pm88 °FScattered clouds.3 mph59%29.71 "HgN/A
11:30 am84 °FPartly sunny.No wind66%29.71 "HgN/A
11:00 am84 °FPartly sunny.2 mph66%29.71 "HgN/A
10:30 am82 °FSunny.1 mph70%29.71 "Hg10 mi
10:00 am81 °FSunny.2 mph74%29.71 "Hg10 mi
9:30 am79 °FSunny.3 mph74%29.71 "Hg10 mi
9:00 am79 °FSunny.1 mph74%29.71 "Hg10 mi
8:30 am77 °FSunny.5 mph79%29.71 "Hg10 mi
8:00 am77 °FLight rain. Clear.6 mph79%29.68 "HgN/A
7:30 am77 °FSunny.5 mph83%29.68 "Hg10 mi
7:00 am77 °FOvercast.5 mph83%29.68 "HgN/A
6:30 am77 °FSprinkles. Clear.3 mph83%29.68 "HgN/A
6:00 am77 °FClear.3 mph83%29.65 "Hg10 mi
5:30 am77 °FClear.2 mph83%29.65 "Hg10 mi
5:00 am77 °FPassing clouds.3 mph83%29.65 "HgN/A
4:30 am77 °FPassing clouds.8 mph83%29.65 "HgN/A
4:00 am77 °FClear.10 mph83%29.68 "HgN/A
3:30 am77 °FOvercast.13 mph83%29.68 "HgN/A
3:00 am77 °FPartly cloudy.13 mph83%29.68 "HgN/A
2:30 am77 °FMostly cloudy.3 mph89%29.68 "HgN/A
2:00 am77 °FPassing clouds.3 mph89%29.68 "HgN/A
1:30 am77 °FOvercast.3 mph89%29.68 "HgN/A
1:00 am79 °FOvercast.5 mph84%29.71 "HgN/A
12:30 am79 °FPassing clouds.12 mph84%29.71 "HgN/A
12:00 am81 °FPassing clouds.6 mph84%29.74 "HgN/A
11:30 pm
Thu, Feb 25
81 °FPartly cloudy.3 mph84%29.74 "HgN/A
11:00 pm81 °FPartly cloudy.3 mph84%29.74 "HgN/A
10:30 pm81 °FPassing clouds.3 mph84%29.74 "HgN/A
10:00 pm81 °FPassing clouds.5 mph84%29.71 "HgN/A
9:30 pm82 °FPassing clouds.5 mph74%29.71 "HgN/A
9:00 pm82 °FPassing clouds.5 mph74%29.71 "HgN/A
8:30 pm82 °FPartly cloudy.5 mph74%29.71 "HgN/A
8:00 pm82 °FPassing clouds.5 mph74%29.71 "HgN/A
7:30 pm82 °FBroken clouds.3 mph74%29.68 "HgN/A
7:00 pm82 °FBroken clouds.5 mph74%29.68 "HgN/A
6:30 pm84 °FBroken clouds.8 mph70%29.65 "HgN/A
6:00 pm84 °FScattered clouds.8 mph74%29.65 "HgN/A
5:30 pm86 °FScattered clouds.8 mph70%29.65 "HgN/A
5:00 pm86 °FBroken clouds.6 mph66%29.65 "HgN/A
4:30 pm86 °FBroken clouds.7 mph66%29.65 "HgN/A
4:00 pm86 °FPartly sunny.8 mph66%29.65 "HgN/A
3:30 pm88 °FBroken clouds.7 mph62%29.65 "HgN/A
3:00 pm86 °FBroken clouds.5 mph62%29.65 "HgN/A
2:30 pm86 °FPartly sunny.3 mph66%29.68 "HgN/A
2:00 pm84 °FBroken clouds.6 mph70%29.68 "HgN/A
Weather by CustomWeather, © 2021

See weather overview